Terminal Aerodrome Forecast
Issued by NWS

Home | Current Version | Previous Version | Text Only | Print | Product List | Glossary On
Versions: 1 2 3 4 5 6 7 8 9 10 11 12 13 14 15 16 17 18 19 20
000
FTUS43 KABR 060905 AAA
TAFATY
TAF AMD
KATY 060905Z 0609/0706 12011KT P6SM OVC006
      TEMPO 0609/0612 5SM BR OVC010
     FM061400 15015G25KT 5SM -RA BR OVC010=

USA.gov is the U.S. government's official web portal to all federal, state and local government web resources and services.